createdAt,value
2019-03-13T00:02:20.484Z,7.70
2019-03-13T00:04:24.463Z,7.70
2019-03-13T00:06:28.882Z,7.70
2019-03-13T00:08:32.799Z,7.80
2019-03-13T00:10:36.878Z,7.70
2019-03-13T00:12:40.871Z,7.70
2019-03-13T00:14:44.882Z,7.70
2019-03-13T00:16:48.816Z,7.50
2019-03-13T00:18:52.644Z,6.00
2019-03-13T00:20:56.480Z,5.10
2019-03-13T00:23:00.327Z,4.60
2019-03-13T00:25:04.635Z,4.50
2019-03-13T00:27:08.672Z,4.50
2019-03-13T00:29:12.616Z,4.30
2019-03-13T00:31:16.560Z,4.40
2019-03-13T00:33:20.401Z,4.30
2019-03-13T00:35:24.405Z,4.30
2019-03-13T00:37:28.336Z,4.30
2019-03-13T00:39:32.176Z,4.20
2019-03-13T00:41:36.188Z,4.50
2019-03-13T00:43:40.061Z,4.30
2019-03-13T00:45:44.215Z,4.50
2019-03-13T00:47:48.348Z,4.30
2019-03-13T00:49:52.351Z,4.40
2019-03-13T00:51:56.287Z,4.40
2019-03-13T00:54:00.144Z,4.40
2019-03-13T00:56:04.128Z,4.50
2019-03-13T00:58:08.077Z,4.40
2019-03-13T01:00:13.811Z,4.50
2019-03-13T01:02:27.177Z,4.40
2019-03-13T01:04:45.390Z,4.40
2019-03-13T01:06:53.456Z,4.50
2019-03-13T01:08:57.294Z,4.70
2019-03-13T01:11:01.223Z,4.70
2019-03-13T01:13:05.239Z,4.60
2019-03-13T01:15:09.391Z,4.70
2019-03-13T01:17:13.333Z,4.60
2019-03-13T01:19:17.180Z,4.70
2019-03-13T01:21:21.089Z,4.70
2019-03-13T01:23:25.037Z,4.70
2019-03-13T01:25:29.043Z,4.80
2019-03-13T01:27:32.879Z,4.70
2019-03-13T01:29:36.809Z,4.80
2019-03-13T01:31:53.643Z,4.80
2019-03-13T01:34:11.471Z,4.70
2019-03-13T01:36:15.381Z,4.70
2019-03-13T01:38:19.402Z,4.80
2019-03-13T01:40:23.525Z,4.90
2019-03-13T01:42:27.391Z,5.00
2019-03-13T01:44:31.231Z,4.90
2019-03-13T01:46:35.075Z,4.90
2019-03-13T01:48:39.011Z,4.90
2019-03-13T01:50:42.863Z,4.90
2019-03-13T01:52:46.799Z,5.00
2019-03-13T01:54:50.777Z,5.00
2019-03-13T01:56:54.624Z,5.00
2019-03-13T01:58:58.457Z,5.00
2019-03-13T02:01:02.876Z,4.90
2019-03-13T02:03:06.971Z,5.00
2019-03-13T02:05:11.103Z,5.00
2019-03-13T02:07:15.012Z,5.00
2019-03-13T02:09:57.307Z,5.10
2019-03-13T02:12:20.366Z,5.00
2019-03-13T02:15:02.563Z,4.90
2019-03-13T02:17:25.702Z,5.10
2019-03-13T02:20:07.887Z,5.10
2019-03-13T02:22:30.940Z,5.20
2019-03-13T02:24:54.376Z,5.20
2019-03-13T02:27:18.784Z,5.10
2019-03-13T02:29:41.834Z,5.10
2019-03-13T02:32:04.967Z,5.20
2019-03-13T02:34:18.768Z,5.20
2019-03-13T02:36:41.916Z,5.20
2019-03-13T02:42:27.143Z,5.40
2019-03-13T02:44:50.211Z,5.20
2019-03-13T02:47:13.247Z,5.30
2019-03-13T02:49:36.323Z,5.30
2019-03-13T02:51:59.374Z,5.40
2019-03-13T02:54:22.426Z,5.40
2019-03-13T02:56:45.487Z,5.40
2019-03-13T03:01:56.344Z,5.40
2019-03-13T03:04:38.525Z,5.40
2019-03-13T03:09:30.736Z,5.40
2019-03-13T03:11:53.767Z,5.40
2019-03-13T03:14:35.961Z,5.40
2019-03-13T03:16:59.017Z,5.40
2019-03-13T03:19:22.137Z,5.50
2019-03-13T03:24:14.223Z,5.50
2019-03-13T03:26:37.358Z,5.50
2019-03-13T03:29:00.419Z,5.50
2019-03-13T03:31:42.657Z,5.50
2019-03-13T03:33:59.950Z,5.50
2019-03-13T03:36:42.149Z,5.60
2019-03-13T03:38:55.988Z,5.50
2019-03-13T03:41:19.096Z,5.60
2019-03-13T03:43:42.302Z,5.60
2019-03-13T03:46:05.392Z,5.60
2019-03-13T03:48:47.592Z,5.60
2019-03-13T03:51:10.669Z,5.70
2019-03-13T03:53:33.801Z,5.70
2019-03-13T03:56:16.108Z,5.70
2019-03-13T03:58:39.574Z,5.70
2019-03-13T04:01:02.653Z,5.70
2019-03-13T04:03:45.005Z,5.70
2019-03-13T04:09:30.010Z,5.70
2019-03-13T04:11:53.040Z,5.70
2019-03-13T04:14:16.134Z,5.70
2019-03-13T04:16:39.179Z,5.80
2019-03-13T04:19:21.468Z,5.70
2019-03-13T04:22:03.654Z,5.70
2019-03-13T04:24:26.716Z,5.80
2019-03-13T04:27:08.906Z,5.80
2019-03-13T04:29:31.984Z,5.80
2019-03-13T04:31:55.078Z,5.70
2019-03-13T04:34:18.176Z,5.80
2019-03-13T04:36:33.614Z,5.70
2019-03-13T04:38:49.011Z,5.80
2019-03-13T04:41:02.515Z,5.60
2019-03-13T04:45:54.560Z,5.60
2019-03-13T04:48:36.765Z,5.60
2019-03-13T04:56:12.639Z,5.60
2019-03-13T04:58:35.678Z,5.60
2019-03-13T05:00:58.744Z,5.00
2019-03-13T05:03:21.803Z,5.60
2019-03-13T05:05:45.636Z,5.60
2019-03-13T05:08:08.723Z,5.70
2019-03-13T05:10:31.780Z,5.70
2019-03-13T05:12:54.891Z,5.60
2019-03-13T05:15:19.627Z,5.70
2019-03-13T05:17:42.703Z,5.70
2019-03-13T05:25:24.085Z,5.90
2019-03-13T05:27:47.160Z,6.90
2019-03-13T05:33:00.043Z,5.80
2019-03-13T05:35:42.256Z,5.90
2019-03-13T05:37:56.289Z,6.00
2019-03-13T05:40:38.505Z,5.90
2019-03-13T05:45:30.639Z,5.90
2019-03-13T05:47:53.695Z,5.90
2019-03-13T05:50:35.888Z,6.00
2019-03-13T05:53:18.104Z,5.90
2019-03-13T05:55:44.024Z,6.00
2019-03-13T05:58:07.222Z,6.00
2019-03-13T06:03:12.715Z,6.00
2019-03-13T06:05:35.752Z,6.00
2019-03-13T06:07:58.805Z,6.00
2019-03-13T06:10:21.914Z,6.10
2019-03-13T06:12:45.002Z,6.10
2019-03-13T06:17:57.911Z,6.20
2019-03-13T06:20:40.077Z,6.20
2019-03-13T06:25:32.192Z,6.20
2019-03-13T06:27:55.239Z,6.20
2019-03-13T06:30:18.304Z,6.10
2019-03-13T06:32:41.355Z,6.20
2019-03-13T06:35:04.887Z,6.20
2019-03-13T06:40:02.410Z,6.30
2019-03-13T06:42:18.124Z,6.40
2019-03-13T06:44:33.727Z,6.10
2019-03-13T06:46:49.284Z,6.30
2019-03-13T06:49:04.825Z,6.40
2019-03-13T06:51:18.577Z,7.60
2019-03-13T06:53:41.646Z,6.30
2019-03-13T06:56:23.905Z,6.30
2019-03-13T06:59:06.123Z,6.30
2019-03-13T07:01:48.384Z,6.30
2019-03-13T07:04:21.096Z,6.30
2019-03-13T07:07:03.186Z,6.50
2019-03-13T07:09:45.310Z,6.50
2019-03-13T07:12:27.480Z,6.40
2019-03-13T07:15:03.853Z,6.30
2019-03-13T07:17:32.417Z,6.50
2019-03-13T07:20:14.776Z,6.40
2019-03-13T07:22:56.885Z,6.40
2019-03-13T07:25:39.017Z,6.40
2019-03-13T07:28:21.138Z,6.40
2019-03-13T07:31:03.280Z,6.40
2019-03-13T07:33:45.380Z,6.30
2019-03-13T07:36:27.569Z,6.50
2019-03-13T07:38:50.796Z,6.50
2019-03-13T07:41:11.831Z,6.50
2019-03-13T07:46:44.064Z,6.60
2019-03-13T07:49:26.236Z,6.60
2019-03-13T07:52:08.352Z,6.60
2019-03-13T07:54:50.469Z,6.50
2019-03-13T08:00:10.338Z,6.50
2019-03-13T08:02:52.529Z,6.60
2019-03-13T08:05:32.537Z,6.60
2019-03-13T08:08:14.661Z,6.70
2019-03-13T08:10:46.721Z,6.60
2019-03-13T08:13:05.767Z,6.70
2019-03-13T08:15:40.127Z,6.60
2019-03-13T08:18:18.283Z,6.60
2019-03-13T08:20:32.756Z,6.70
2019-03-13T08:23:00.895Z,6.80
2019-03-13T08:25:27.398Z,6.70
2019-03-13T08:27:38.807Z,6.60
2019-03-13T08:30:13.806Z,6.80
2019-03-13T08:32:35.650Z,6.70
2019-03-13T08:35:17.043Z,6.80
2019-03-13T08:37:42.052Z,6.80
2019-03-13T08:40:14.329Z,6.90
2019-03-13T08:42:35.819Z,6.90
2019-03-13T08:44:57.632Z,6.90
2019-03-13T08:47:29.787Z,6.90
2019-03-13T08:49:44.892Z,6.90
2019-03-13T08:52:14.013Z,6.90
2019-03-13T08:54:27.129Z,6.80
2019-03-13T08:56:58.945Z,7.00
2019-03-13T08:59:23.470Z,7.00
2019-03-13T09:01:44.303Z,7.00
2019-03-13T09:04:15.423Z,7.00
2019-03-13T09:06:37.307Z,7.00
2019-03-13T09:09:12.659Z,7.00
2019-03-13T09:11:28.437Z,7.00
2019-03-13T09:13:43.783Z,7.10
2019-03-13T09:15:57.800Z,7.10
2019-03-13T09:18:23.971Z,7.10
2019-03-13T09:20:42.053Z,7.10
2019-03-13T09:23:01.739Z,7.20
2019-03-13T09:25:28.272Z,7.20
2019-03-13T09:27:51.563Z,7.20
2019-03-13T09:30:14.679Z,7.20
2019-03-13T09:32:55.810Z,7.20
2019-03-13T09:35:08.733Z,7.30
2019-03-13T09:37:33.626Z,7.30
2019-03-13T09:39:53.645Z,7.30
2019-03-13T09:42:05.422Z,7.30
2019-03-13T09:44:27.771Z,7.30
2019-03-13T09:46:47.126Z,7.40
2019-03-13T09:48:59.727Z,7.50
2019-03-13T09:51:28.931Z,7.40
2019-03-13T09:54:00.806Z,7.50
2019-03-13T09:56:23.859Z,7.40
2019-03-13T09:58:48.331Z,7.40
2019-03-13T10:01:01.199Z,7.40
2019-03-13T10:03:34.215Z,7.40
2019-03-13T10:05:47.966Z,7.40
2019-03-13T10:08:04.784Z,7.50
2019-03-13T10:10:29.568Z,7.50
2019-03-13T10:12:55.371Z,7.40
2019-03-13T10:15:04.510Z,7.50
2019-03-13T10:17:13.643Z,7.40
2019-03-13T10:19:36.709Z,7.40
2019-03-13T10:21:53.302Z,7.30
2019-03-13T10:24:16.339Z,7.40
2019-03-13T10:26:47.421Z,7.50
2019-03-13T10:28:55.267Z,7.50
2019-03-13T10:31:18.435Z,7.40
2019-03-13T10:33:31.307Z,7.50
2019-03-13T10:35:52.879Z,7.50
2019-03-13T10:38:13.324Z,7.60
2019-03-13T10:40:45.867Z,7.60
2019-03-13T10:43:08.851Z,7.60
2019-03-13T10:45:24.586Z,7.50
2019-03-13T10:47:44.132Z,7.20
2019-03-13T10:49:57.479Z,6.90
2019-03-13T10:52:10.116Z,6.80
2019-03-13T10:54:35.779Z,6.80
2019-03-13T10:57:01.556Z,6.90
2019-03-13T10:59:24.501Z,6.90
2019-03-13T11:01:43.460Z,7.00
2019-03-13T11:03:58.981Z,7.00
2019-03-13T11:06:24.903Z,7.00
2019-03-13T11:08:36.864Z,7.00
2019-03-13T11:10:59.972Z,7.10
2019-03-13T11:13:11.739Z,7.10
2019-03-13T11:15:31.536Z,7.00
2019-03-13T11:17:54.511Z,6.90
2019-03-13T11:20:14.417Z,6.90
2019-03-13T11:22:30.351Z,6.60
2019-03-13T11:24:52.403Z,6.20
2019-03-13T11:27:05.273Z,6.00
2019-03-13T11:29:26.967Z,5.70
2019-03-13T11:31:59.078Z,5.60
2019-03-13T11:34:13.415Z,5.70
2019-03-13T11:36:36.404Z,5.80
2019-03-13T11:38:58.423Z,6.00
2019-03-13T11:41:30.584Z,5.90
2019-03-13T11:43:41.867Z,5.80
2019-03-13T11:46:03.676Z,5.60
2019-03-13T11:48:18.801Z,5.70
2019-03-13T11:50:50.686Z,5.80
2019-03-13T11:53:22.954Z,6.00
2019-03-13T11:55:44.961Z,6.20
2019-03-13T11:58:11.240Z,6.30
2019-03-13T12:00:24.296Z,6.30
2019-03-13T12:02:47.700Z,6.30
2019-03-13T12:05:10.806Z,6.30
2019-03-13T12:07:27.111Z,6.40
2019-03-13T12:10:02.076Z,6.40
2019-03-13T12:12:24.111Z,6.50
2019-03-13T12:14:45.791Z,6.60
2019-03-13T12:17:11.734Z,6.50
2019-03-13T12:19:33.319Z,6.60
2019-03-13T12:21:53.496Z,6.60
2019-03-13T12:24:22.705Z,6.60
2019-03-13T12:26:38.647Z,6.70
2019-03-13T12:29:02.014Z,6.70
2019-03-13T12:31:25.403Z,6.80
2019-03-13T12:33:43.196Z,6.90
2019-03-13T12:36:12.217Z,6.90
2019-03-13T12:38:35.987Z,7.10
2019-03-13T12:41:02.189Z,7.00
2019-03-13T12:43:23.964Z,7.10
2019-03-13T12:45:55.185Z,7.20
2019-03-13T12:48:17.049Z,7.30
2019-03-13T12:50:42.391Z,7.40
2019-03-13T12:52:58.298Z,7.50
2019-03-13T12:55:17.851Z,7.40
2019-03-13T12:57:42.351Z,7.60
2019-03-13T12:59:59.192Z,7.70
2019-03-13T13:02:28.169Z,7.50
2019-03-13T13:04:49.107Z,7.60
2019-03-13T13:07:13.640Z,7.60
2019-03-13T13:09:42.963Z,7.40
2019-03-13T13:12:14.798Z,7.40
2019-03-13T13:14:38.721Z,7.30
2019-03-13T13:16:58.259Z,7.20
2019-03-13T13:19:02.159Z,7.20
2019-03-13T13:21:06.155Z,7.40
2019-03-13T13:23:10.020Z,7.40
2019-03-13T13:25:14.078Z,7.50
2019-03-13T13:27:17.964Z,7.40
2019-03-13T13:29:21.826Z,7.40
2019-03-13T13:31:25.811Z,7.30
2019-03-13T13:33:30.024Z,7.40
2019-03-13T13:35:34.003Z,7.40
2019-03-13T13:37:37.921Z,7.50
2019-03-13T13:39:41.987Z,7.50
2019-03-13T13:41:45.914Z,7.50
2019-03-13T13:43:49.741Z,7.50
2019-03-13T13:46:12.991Z,7.60
2019-03-13T13:48:16.887Z,7.70
2019-03-13T13:50:20.837Z,7.90
2019-03-13T13:52:24.663Z,7.90
2019-03-13T13:54:28.725Z,7.80
2019-03-13T13:56:32.576Z,7.80
2019-03-13T13:58:36.403Z,7.90
2019-03-13T14:00:40.381Z,7.80
2019-03-13T14:02:44.306Z,7.80
2019-03-13T14:04:48.152Z,7.80
2019-03-13T14:06:52.079Z,7.90
2019-03-13T14:08:55.995Z,7.80
2019-03-13T14:11:00.116Z,7.80
2019-03-13T14:13:04.065Z,7.90
2019-03-13T14:15:08.211Z,7.90
2019-03-13T14:17:12.108Z,8.00
2019-03-13T14:19:15.995Z,8.00
2019-03-13T14:21:19.899Z,8.10
2019-03-13T14:23:24.213Z,7.90
2019-03-13T14:25:28.137Z,7.90
2019-03-13T14:27:32.107Z,7.80
2019-03-13T14:29:36.040Z,7.80
2019-03-13T14:31:39.883Z,7.80
2019-03-13T14:33:43.943Z,7.70
2019-03-13T14:35:48.076Z,7.60
2019-03-13T14:37:52.003Z,7.70
2019-03-13T14:39:55.842Z,7.70
2019-03-13T14:41:59.757Z,7.70
2019-03-13T14:44:03.611Z,7.60
2019-03-13T14:46:11.277Z,7.50
2019-03-13T14:48:15.248Z,7.40
2019-03-13T14:50:19.460Z,7.40
2019-03-13T14:52:23.306Z,7.40
2019-03-13T14:54:27.207Z,7.40
2019-03-13T14:56:31.395Z,7.40
2019-03-13T14:58:35.251Z,7.30
2019-03-13T15:00:39.252Z,7.40
2019-03-13T15:02:43.219Z,7.30
2019-03-13T15:04:47.051Z,7.20
2019-03-13T15:06:51.007Z,7.20
2019-03-13T15:08:54.862Z,7.20
2019-03-13T15:10:58.793Z,7.10
2019-03-13T15:13:02.778Z,7.20
2019-03-13T15:15:07.192Z,6.90
2019-03-13T15:17:11.123Z,6.60
2019-03-13T15:19:14.943Z,6.20
2019-03-13T15:21:19.866Z,5.90
2019-03-13T15:23:23.798Z,5.80
2019-03-13T15:25:27.815Z,5.80
2019-03-13T15:27:31.652Z,5.70
2019-03-13T15:29:35.503Z,5.70
2019-03-13T15:31:39.407Z,5.70
2019-03-13T15:33:43.310Z,5.60
2019-03-13T15:35:47.160Z,5.10
2019-03-13T15:37:51.223Z,5.10
2019-03-13T15:39:55.175Z,5.10
2019-03-13T15:41:59.031Z,5.10
2019-03-13T15:44:02.863Z,5.20
2019-03-13T15:46:07.036Z,5.20
2019-03-13T15:48:11.049Z,5.30
2019-03-13T15:50:15.264Z,5.30
2019-03-13T15:52:19.147Z,5.60
2019-03-13T15:54:23.149Z,5.60
2019-03-13T15:56:27.134Z,5.60
2019-03-13T15:58:31.004Z,5.70
2019-03-13T16:00:34.980Z,5.70
2019-03-13T16:02:40.379Z,5.60
2019-03-13T16:04:44.254Z,5.60
2019-03-13T16:06:48.125Z,5.80
2019-03-13T16:08:51.957Z,5.90
2019-03-13T16:10:56.023Z,5.90
2019-03-13T16:13:02.190Z,6.00
2019-03-13T16:15:07.568Z,6.00
2019-03-13T16:17:11.626Z,6.10
2019-03-13T16:19:15.637Z,6.10
2019-03-13T16:21:20.561Z,6.10
2019-03-13T16:23:24.494Z,6.20
2019-03-13T16:25:28.487Z,6.20
2019-03-13T16:27:32.332Z,6.20
2019-03-13T16:29:36.418Z,6.10
2019-03-13T16:31:40.339Z,6.10
2019-03-13T16:33:44.246Z,6.10
2019-03-13T16:35:48.103Z,6.20
2019-03-13T16:37:52.015Z,6.10
2019-03-13T16:39:55.856Z,6.10
2019-03-13T16:41:59.831Z,6.20
2019-03-13T16:44:03.736Z,6.10
2019-03-13T16:46:07.731Z,6.10
2019-03-13T16:48:11.673Z,6.10
2019-03-13T16:50:17.083Z,6.10
2019-03-13T16:52:21.019Z,6.10
2019-03-13T16:54:24.955Z,6.10
2019-03-13T16:56:28.900Z,6.00
2019-03-13T16:58:32.849Z,6.00
2019-03-13T17:00:36.839Z,6.00
2019-03-13T17:02:40.861Z,6.10
2019-03-13T17:04:44.895Z,6.00
2019-03-13T17:06:48.844Z,6.00
2019-03-13T17:08:52.840Z,6.00
2019-03-13T17:10:56.939Z,6.00
2019-03-13T17:13:00.915Z,5.90
2019-03-13T17:15:05.908Z,5.90
2019-03-13T17:17:09.792Z,5.60
2019-03-13T17:19:13.667Z,5.50
2019-03-13T17:21:19.339Z,5.60
2019-03-13T17:23:23.177Z,5.50
2019-03-13T17:25:27.209Z,5.40
2019-03-13T17:27:31.296Z,5.30
2019-03-13T17:29:35.123Z,5.20
2019-03-13T17:31:38.983Z,5.10
2019-03-13T17:33:42.944Z,5.00
2019-03-13T17:35:46.876Z,5.00
2019-03-13T17:37:50.902Z,4.90
2019-03-13T17:39:54.875Z,5.10
2019-03-13T17:41:58.763Z,5.00
2019-03-13T17:44:02.819Z,5.10
2019-03-13T17:46:07.365Z,5.10
2019-03-13T17:48:11.379Z,5.20
2019-03-13T17:50:16.551Z,5.30
2019-03-13T17:52:20.516Z,5.40
2019-03-13T17:54:24.390Z,5.50
2019-03-13T17:56:28.377Z,5.50
2019-03-13T17:58:32.451Z,5.50
2019-03-13T18:00:45.862Z,5.60
2019-03-13T18:02:49.832Z,5.60
2019-03-13T18:04:53.676Z,5.70
2019-03-13T18:06:57.769Z,5.80
2019-03-13T18:09:03.956Z,5.80
2019-03-13T18:11:07.293Z,5.80
2019-03-13T18:13:12.479Z,5.70
2019-03-13T18:15:16.867Z,5.70
2019-03-13T18:17:20.836Z,5.70
2019-03-13T18:19:24.758Z,5.80
2019-03-13T18:21:28.665Z,5.90
2019-03-13T18:23:32.660Z,5.70
2019-03-13T18:25:36.780Z,5.70
2019-03-13T18:27:40.689Z,5.70
2019-03-13T18:29:44.559Z,5.70
2019-03-13T18:31:48.525Z,5.80
2019-03-13T18:33:52.556Z,5.70
2019-03-13T18:35:56.576Z,5.70
2019-03-13T18:38:00.574Z,5.70
2019-03-13T18:40:05.064Z,5.50
2019-03-13T18:42:08.968Z,5.30
2019-03-13T18:44:12.850Z,5.30
2019-03-13T18:46:16.754Z,5.20
2019-03-13T18:48:20.721Z,5.40
2019-03-13T18:50:25.468Z,5.40
2019-03-13T18:52:29.421Z,5.50
2019-03-13T18:54:33.302Z,5.60
2019-03-13T18:56:38.641Z,5.60
2019-03-13T18:58:42.711Z,5.60
2019-03-13T19:00:46.675Z,5.70
2019-03-13T19:02:50.754Z,5.70
2019-03-13T19:04:57.534Z,5.90
2019-03-13T19:07:00.411Z,5.90
2019-03-13T19:09:04.768Z,5.90
2019-03-13T19:11:08.587Z,5.90
2019-03-13T19:13:12.730Z,6.00
2019-03-13T19:15:19.651Z,6.00
2019-03-13T19:17:23.591Z,6.00
2019-03-13T19:19:27.434Z,5.90
2019-03-13T19:21:31.407Z,6.00
2019-03-13T19:23:35.303Z,5.90
2019-03-13T19:25:39.247Z,6.10
2019-03-13T19:27:43.328Z,6.00
2019-03-13T19:29:47.836Z,6.00
2019-03-13T19:31:53.773Z,6.00
2019-03-13T19:33:57.880Z,6.10
2019-03-13T19:36:01.764Z,6.20
2019-03-13T19:38:09.072Z,6.20
2019-03-13T19:40:13.758Z,6.10
2019-03-13T19:42:17.838Z,6.10
2019-03-13T19:44:21.872Z,6.10
2019-03-13T19:46:25.837Z,6.20
2019-03-13T19:48:29.746Z,6.20
2019-03-13T19:50:33.700Z,6.10
2019-03-13T19:52:37.830Z,6.20
2019-03-13T19:54:41.755Z,6.30
2019-03-13T19:56:45.800Z,6.20
2019-03-13T19:58:49.723Z,6.20
2019-03-13T20:00:53.634Z,6.30
2019-03-13T20:03:00.291Z,6.20
2019-03-13T20:05:03.396Z,6.10
2019-03-13T20:07:07.473Z,6.10
2019-03-13T20:09:11.578Z,6.10
2019-03-13T20:11:15.534Z,6.10
2019-03-13T20:13:38.658Z,6.20
2019-03-13T20:16:20.966Z,6.10
2019-03-13T20:18:44.016Z,5.90
2019-03-13T20:21:13.983Z,6.00
2019-03-13T20:23:37.140Z,6.10
2019-03-13T20:26:00.333Z,6.20
2019-03-13T20:28:42.552Z,6.30
2019-03-13T20:31:24.728Z,6.30
2019-03-13T20:36:58.686Z,6.50
2019-03-13T20:39:21.296Z,6.10
2019-03-13T20:47:05.304Z,6.20
2019-03-13T20:49:28.506Z,6.20
2019-03-13T20:51:51.607Z,6.20
2019-03-13T20:54:05.545Z,6.20
2019-03-13T20:56:28.617Z,6.30
2019-03-13T20:58:51.683Z,6.30
2019-03-13T21:01:14.819Z,6.30
2019-03-13T21:03:57.240Z,6.50
2019-03-13T21:06:20.310Z,6.40
2019-03-13T21:09:02.512Z,5.20
2019-03-13T21:11:44.912Z,6.50
2019-03-13T21:14:27.104Z,6.60
2019-03-13T21:16:50.173Z,6.40
2019-03-13T21:19:13.256Z,6.50
2019-03-13T21:21:36.310Z,6.50
2019-03-13T21:23:59.403Z,6.40
2019-03-13T21:26:22.486Z,6.40
2019-03-13T21:28:45.584Z,6.30
2019-03-13T21:31:08.731Z,6.30
2019-03-13T21:33:31.791Z,6.30
2019-03-13T21:36:14.008Z,6.30
2019-03-13T21:38:37.073Z,6.40
2019-03-13T21:41:19.304Z,6.40
2019-03-13T21:43:42.366Z,6.40
2019-03-13T21:46:06.691Z,6.30
2019-03-13T21:51:17.988Z,6.50
2019-03-13T21:53:42.813Z,6.40
2019-03-13T21:55:56.628Z,6.40
2019-03-13T21:58:12.176Z,6.50
2019-03-13T22:00:27.806Z,6.40
2019-03-13T22:02:41.562Z,6.10
2019-03-13T22:08:26.673Z,6.30
2019-03-13T22:11:08.912Z,6.40
2019-03-13T22:13:51.103Z,6.20
2019-03-13T22:16:33.324Z,6.20
2019-03-13T22:18:56.490Z,6.20
2019-03-13T22:21:19.574Z,6.30
2019-03-13T22:26:30.308Z,6.30
2019-03-13T22:28:53.409Z,6.20
2019-03-13T22:31:16.719Z,6.20
2019-03-13T22:33:39.797Z,6.20
2019-03-13T22:36:02.863Z,6.20
2019-03-13T22:38:25.944Z,6.10
2019-03-13T22:40:49.084Z,6.20
2019-03-13T22:43:31.293Z,6.20
2019-03-13T22:45:54.342Z,6.30
2019-03-13T22:48:19.124Z,6.10
2019-03-13T22:50:42.167Z,6.10
2019-03-13T22:53:05.328Z,6.10
2019-03-13T22:55:47.544Z,6.10
2019-03-13T22:58:29.728Z,6.00
2019-03-13T23:04:05.876Z,6.00
2019-03-13T23:06:29.084Z,5.90
2019-03-13T23:08:52.227Z,6.00
2019-03-13T23:14:04.515Z,5.80
2019-03-13T23:16:27.536Z,5.80
2019-03-13T23:18:50.598Z,5.90
2019-03-13T23:23:42.999Z,5.90
2019-03-13T23:26:06.123Z,5.90
2019-03-13T23:28:29.228Z,5.90
2019-03-13T23:30:52.386Z,5.90
2019-03-13T23:33:15.453Z,5.90
2019-03-13T23:35:41.438Z,6.00
2019-03-13T23:38:15.445Z,5.90
2019-03-13T23:40:29.527Z,6.00
2019-03-13T23:42:52.640Z,5.90
2019-03-13T23:45:35.032Z,6.00
2019-03-13T23:47:58.135Z,6.00
2019-03-13T23:50:40.492Z,5.90
2019-03-13T23:53:22.688Z,4.90
2019-03-13T23:55:45.769Z,5.80
2019-03-13T23:58:01.447Z,5.80
